createdAt,value
2023-05-24T00:01:51.373Z,8.65
2023-05-24T00:04:19.991Z,8.77
2023-05-24T00:06:48.552Z,8.45
2023-05-24T00:09:16.769Z,8.48
2023-05-24T00:11:46.432Z,8.73
2023-05-24T00:14:14.660Z,8.88
2023-05-24T00:16:42.997Z,8.40
2023-05-24T00:19:12.115Z,9.23
2023-05-24T00:21:40.284Z,8.80
2023-05-24T00:24:08.578Z,9.35
2023-05-24T00:26:37.088Z,9.52
2023-05-24T00:29:06.853Z,9.45
2023-05-24T00:31:35.341Z,10.05
2023-05-24T00:34:03.605Z,9.38
2023-05-24T00:36:31.807Z,9.85
2023-05-24T00:39:00.119Z,9.05
2023-05-24T00:41:28.353Z,9.77
2023-05-24T00:43:56.565Z,9.70
2023-05-24T00:46:29.890Z,9.23
2023-05-24T00:48:58.886Z,9.18
2023-05-24T00:51:27.950Z,9.48
2023-05-24T00:53:56.914Z,9.20
2023-05-24T00:56:26.277Z,9.70
2023-05-24T00:58:56.178Z,9.88
2023-05-24T01:01:26.762Z,9.52
2023-05-24T01:03:55.191Z,9.98
2023-05-24T01:06:23.610Z,9.15
2023-05-24T01:09:14.702Z,9.00
2023-05-24T01:11:55.797Z,8.90
2023-05-24T01:14:31.043Z,9.68
2023-05-24T01:17:09.417Z,9.02
2023-05-24T01:19:53.780Z,8.45
2023-05-24T01:22:39.680Z,8.60
2023-05-24T01:25:14.333Z,8.65
2023-05-24T01:27:45.634Z,7.95
2023-05-24T01:30:14.849Z,9.65
2023-05-24T01:32:43.900Z,8.63
2023-05-24T01:35:12.184Z,8.50
2023-05-24T01:37:40.352Z,8.50
2023-05-24T01:40:10.112Z,8.52
2023-05-24T01:42:49.950Z,8.77
2023-05-24T01:45:24.187Z,9.15
2023-05-24T01:48:03.242Z,8.75
2023-05-24T01:50:35.695Z,8.60
2023-05-24T01:53:07.753Z,8.50
2023-05-24T01:55:37.572Z,8.48
2023-05-24T01:58:08.305Z,8.77
2023-05-24T02:00:36.795Z,8.55
2023-05-24T02:03:05.630Z,8.38
2023-05-24T02:05:34.350Z,8.07
2023-05-24T02:08:02.634Z,8.50
2023-05-24T02:10:30.821Z,8.23
2023-05-24T02:12:59.865Z,9.05
2023-05-24T02:15:30.492Z,8.52
2023-05-24T02:17:58.836Z,8.88
2023-05-24T02:20:28.626Z,9.25
2023-05-24T02:22:56.849Z,8.68
2023-05-24T02:25:25.655Z,8.63
2023-05-24T02:27:53.961Z,8.50
2023-05-24T02:30:22.235Z,8.48
2023-05-24T02:32:51.960Z,8.68
2023-05-24T02:35:20.247Z,8.90
2023-05-24T02:37:48.458Z,7.93
2023-05-24T02:40:16.671Z,8.65
2023-05-24T02:42:44.860Z,8.75
2023-05-24T02:45:13.147Z,9.55
2023-05-24T02:47:41.595Z,8.77
2023-05-24T02:50:12.168Z,8.88
2023-05-24T02:52:40.453Z,8.93
2023-05-24T02:55:09.643Z,8.23
2023-05-24T02:57:38.376Z,9.38
2023-05-24T03:00:09.214Z,8.75
2023-05-24T03:02:38.814Z,8.85
2023-05-24T03:05:07.913Z,9.63
2023-05-24T03:07:37.499Z,8.68
2023-05-24T03:10:06.465Z,8.98
2023-05-24T03:12:34.653Z,9.30
2023-05-24T03:15:02.932Z,9.75
2023-05-24T03:17:31.243Z,9.30
2023-05-24T03:19:59.591Z,8.85
2023-05-24T03:22:27.914Z,9.13
2023-05-24T03:24:58.277Z,9.07
2023-05-24T03:27:26.498Z,9.10
2023-05-24T03:29:54.671Z,9.88
2023-05-24T03:32:22.928Z,8.70
2023-05-24T03:34:51.126Z,9.13
2023-05-24T03:37:19.387Z,9.85
2023-05-24T03:39:47.589Z,8.30
2023-05-24T03:42:17.391Z,9.13
2023-05-24T03:44:45.639Z,9.00
2023-05-24T03:47:13.807Z,9.23
2023-05-24T03:49:41.981Z,8.80
2023-05-24T03:52:10.199Z,9.73
2023-05-24T03:54:38.490Z,9.00
2023-05-24T03:57:06.961Z,9.18
2023-05-24T03:59:37.354Z,9.23
2023-05-24T04:02:06.790Z,8.98
2023-05-24T04:04:35.014Z,9.35
2023-05-24T04:07:03.256Z,9.45
2023-05-24T04:09:31.490Z,9.88
2023-05-24T04:11:59.731Z,8.90
2023-05-24T04:14:27.991Z,9.18
2023-05-24T04:16:57.684Z,9.00
2023-05-24T04:19:25.929Z,9.95
2023-05-24T04:21:54.139Z,9.80
2023-05-24T04:24:22.466Z,9.40
2023-05-24T04:26:51.722Z,9.10
2023-05-24T04:29:19.992Z,9.77
2023-05-24T04:31:49.195Z,8.93
2023-05-24T04:34:22.308Z,8.90
2023-05-24T04:36:52.499Z,9.48
2023-05-24T04:39:20.723Z,9.50
2023-05-24T04:41:51.053Z,9.20
2023-05-24T04:44:19.276Z,9.30
2023-05-24T04:46:47.699Z,9.02
2023-05-24T04:49:15.948Z,8.55
2023-05-24T04:51:45.504Z,9.27
2023-05-24T04:54:13.698Z,8.45
2023-05-24T04:56:41.884Z,9.65
2023-05-24T04:59:10.114Z,8.85
2023-05-24T05:01:38.430Z,8.77
2023-05-24T05:04:07.423Z,8.52
2023-05-24T05:06:38.841Z,9.90
2023-05-24T05:09:11.630Z,9.30
2023-05-24T05:11:40.004Z,8.43
2023-05-24T05:14:09.768Z,8.75
2023-05-24T05:16:38.652Z,8.93
2023-05-24T05:19:07.075Z,8.90
2023-05-24T05:21:36.500Z,9.40
2023-05-24T05:24:04.957Z,8.75
2023-05-24T05:26:35.608Z,9.05
2023-05-24T05:29:03.804Z,8.95
2023-05-24T05:31:32.029Z,8.85
2023-05-24T05:34:00.194Z,10.15
2023-05-24T05:36:28.394Z,9.57
2023-05-24T05:38:56.587Z,9.23
2023-05-24T05:41:24.835Z,9.00
2023-05-24T05:43:54.460Z,8.68
2023-05-24T05:46:22.693Z,7.88
2023-05-24T05:48:51.135Z,7.57
2023-05-24T05:51:19.345Z,8.15
2023-05-24T05:53:47.524Z,8.48
2023-05-24T05:56:15.677Z,7.78
2023-05-24T05:58:43.849Z,7.35
2023-05-24T06:01:13.481Z,6.75
2023-05-24T06:03:41.834Z,6.60
2023-05-24T06:06:10.247Z,6.93
2023-05-24T06:08:40.827Z,6.70
2023-05-24T06:11:09.023Z,7.60
2023-05-24T06:13:37.223Z,6.65
2023-05-24T06:16:05.537Z,6.63
2023-05-24T06:18:35.678Z,6.32
2023-05-24T06:21:03.952Z,6.10
2023-05-24T06:23:32.236Z,6.03
2023-05-24T06:26:01.596Z,6.45
2023-05-24T06:28:29.864Z,6.40
2023-05-24T06:30:58.138Z,6.10
2023-05-24T06:33:27.523Z,6.50
2023-05-24T06:35:57.166Z,6.05
2023-05-24T06:38:25.501Z,6.15
2023-05-24T06:40:53.747Z,6.47
2023-05-24T06:43:22.037Z,6.28
2023-05-24T06:45:50.313Z,6.05
2023-05-24T06:48:19.054Z,6.80
2023-05-24T06:50:48.053Z,6.45
2023-05-24T06:53:17.818Z,6.65
2023-05-24T06:55:46.077Z,6.25
2023-05-24T06:58:14.579Z,6.03
2023-05-24T07:00:43.408Z,6.43
2023-05-24T07:03:11.992Z,6.55
2023-05-24T07:05:40.202Z,6.78
2023-05-24T07:08:09.413Z,6.53
2023-05-24T07:10:39.013Z,6.40
2023-05-24T07:13:07.248Z,5.75
2023-05-24T07:15:35.638Z,6.25
2023-05-24T07:18:03.849Z,6.50
2023-05-24T07:20:32.217Z,6.10
2023-05-24T07:23:01.217Z,6.38
2023-05-24T07:25:29.530Z,6.50
2023-05-24T07:27:59.088Z,6.55
2023-05-24T07:30:32.290Z,6.05
2023-05-24T07:33:01.924Z,6.20
2023-05-24T07:35:31.142Z,6.32
2023-05-24T07:37:59.380Z,6.43
2023-05-24T07:40:29.882Z,6.05
2023-05-24T07:42:59.475Z,5.80
2023-05-24T07:45:27.667Z,6.20
2023-05-24T07:47:57.052Z,5.97
2023-05-24T07:50:26.518Z,6.03
2023-05-24T07:52:55.272Z,6.22
2023-05-24T07:55:23.492Z,6.47
2023-05-24T07:57:51.704Z,6.07
2023-05-24T08:00:23.221Z,6.57
2023-05-24T08:02:52.421Z,6.32
2023-05-24T08:05:20.758Z,5.72
2023-05-24T08:07:48.971Z,5.95
2023-05-24T08:10:17.158Z,6.30
2023-05-24T08:12:45.392Z,6.47
2023-05-24T08:15:13.667Z,7.57
2023-05-24T08:17:43.266Z,6.57
2023-05-24T08:20:14.423Z,6.72
2023-05-24T08:22:42.996Z,6.55
2023-05-24T08:25:11.985Z,7.00
2023-05-24T08:27:40.297Z,6.72
2023-05-24T08:30:09.798Z,6.40
2023-05-24T08:32:38.483Z,6.32
2023-05-24T08:35:20.276Z,6.03
2023-05-24T08:37:50.034Z,5.85
2023-05-24T08:40:18.850Z,6.20
2023-05-24T08:42:47.527Z,6.63
2023-05-24T08:45:16.837Z,6.25
2023-05-24T08:47:45.539Z,6.38
2023-05-24T08:50:15.207Z,6.57
2023-05-24T08:52:46.518Z,6.07
2023-05-24T08:55:16.085Z,6.30
2023-05-24T08:57:46.583Z,6.18
2023-05-24T09:00:15.915Z,5.88
2023-05-24T09:02:45.251Z,5.93
2023-05-24T09:05:17.138Z,5.80
2023-05-24T09:07:47.244Z,5.82
2023-05-24T09:10:16.115Z,6.32
2023-05-24T09:12:47.040Z,6.28
2023-05-24T09:15:15.345Z,5.90
2023-05-24T09:17:43.706Z,6.70
2023-05-24T09:20:12.590Z,6.28
2023-05-24T09:22:44.260Z,7.55
2023-05-24T09:25:15.185Z,6.53
2023-05-24T09:27:51.473Z,6.30
2023-05-24T09:30:20.199Z,6.53
2023-05-24T09:32:59.070Z,6.93
2023-05-24T09:35:28.405Z,6.43
2023-05-24T09:37:59.934Z,6.70
2023-05-24T09:40:28.824Z,6.18
2023-05-24T09:43:08.779Z,6.57
2023-05-24T09:45:42.977Z,6.35
2023-05-24T09:48:13.089Z,5.88
2023-05-24T09:50:41.764Z,6.28
2023-05-24T09:53:12.894Z,6.07
2023-05-24T09:55:41.318Z,6.30
2023-05-24T09:58:11.626Z,5.95
2023-05-24T10:00:42.114Z,6.78
2023-05-24T10:03:13.277Z,6.03
2023-05-24T10:05:45.208Z,6.28
2023-05-24T10:08:15.527Z,6.10
2023-05-24T10:10:44.696Z,6.85
2023-05-24T10:13:15.910Z,7.50
2023-05-24T10:15:45.195Z,6.88
2023-05-24T10:18:14.253Z,7.13
2023-05-24T10:20:43.198Z,7.35
2023-05-24T10:23:16.294Z,6.90
2023-05-24T10:25:52.313Z,6.78
2023-05-24T10:28:23.451Z,6.70
2023-05-24T10:31:01.796Z,7.50
2023-05-24T10:33:31.417Z,7.45
2023-05-24T10:35:59.982Z,6.95
2023-05-24T10:38:28.288Z,6.78
2023-05-24T10:40:57.964Z,7.38
2023-05-24T10:43:27.731Z,6.82
2023-05-24T10:46:20.028Z,6.38
